createdAt,value
2023-04-20T00:00:38.446Z,0.00
2023-04-20T00:01:38.448Z,0.00
2023-04-20T00:02:38.738Z,0.00
2023-04-20T00:03:38.648Z,0.00
2023-04-20T00:04:38.452Z,0.00
2023-04-20T00:05:38.378Z,0.00
2023-04-20T00:06:38.394Z,0.00
2023-04-20T00:07:38.408Z,0.00
2023-04-20T00:08:38.416Z,0.00
2023-04-20T00:09:38.375Z,0.00
2023-04-20T00:10:38.358Z,0.00
2023-04-20T00:11:38.338Z,0.00
2023-04-20T00:12:38.346Z,0.00
2023-04-20T00:13:38.320Z,0.00
2023-04-20T00:14:38.310Z,0.00
2023-04-20T00:15:38.277Z,0.00
2023-04-20T00:16:38.328Z,0.00
2023-04-20T00:17:38.322Z,0.00
2023-04-20T00:18:38.250Z,0.00
2023-04-20T00:19:38.244Z,0.00
2023-04-20T00:20:38.253Z,0.00
2023-04-20T00:21:38.232Z,0.00
2023-04-20T00:22:38.238Z,0.00
2023-04-20T00:23:38.222Z,0.00
2023-04-20T00:24:38.188Z,0.00
2023-04-20T00:25:38.175Z,0.00
2023-04-20T00:26:38.166Z,0.00
2023-04-20T00:27:38.139Z,0.00
2023-04-20T00:28:38.157Z,0.00
2023-04-20T00:29:38.172Z,0.00
2023-04-20T00:30:38.207Z,0.00
2023-04-20T00:31:38.094Z,0.00
2023-04-20T00:32:38.217Z,0.00
2023-04-20T00:33:38.094Z,0.00
2023-04-20T00:34:38.088Z,0.00
2023-04-20T00:35:38.049Z,0.00
2023-04-20T00:36:38.051Z,0.00
2023-04-20T00:37:38.044Z,0.00
2023-04-20T00:38:38.061Z,0.00
2023-04-20T00:39:38.021Z,0.00
2023-04-20T00:40:38.022Z,0.00
2023-04-20T00:41:38.000Z,0.00
2023-04-20T00:42:38.012Z,0.00
2023-04-20T00:43:38.029Z,0.00
2023-04-20T00:44:37.976Z,0.00
2023-04-20T00:45:37.952Z,0.00
2023-04-20T00:46:38.024Z,0.00
2023-04-20T00:47:37.979Z,0.00
2023-04-20T00:48:37.950Z,0.00
2023-04-20T00:49:37.937Z,0.00
2023-04-20T00:50:37.912Z,0.00
2023-04-20T00:51:37.894Z,0.00
2023-04-20T00:52:37.879Z,0.00
2023-04-20T00:53:37.865Z,0.00
2023-04-20T00:54:37.876Z,0.00
2023-04-20T00:55:37.858Z,0.00
2023-04-20T00:56:37.874Z,0.00
2023-04-20T00:57:37.843Z,0.00
2023-04-20T00:58:37.817Z,0.00
2023-04-20T00:59:37.790Z,0.00
2023-04-20T01:00:37.826Z,0.00
2023-04-20T01:01:37.907Z,0.00
2023-04-20T01:02:37.954Z,0.00
2023-04-20T01:03:37.893Z,0.00
2023-04-20T01:04:37.858Z,0.00
2023-04-20T01:05:37.762Z,0.00
2023-04-20T01:06:37.797Z,0.00
2023-04-20T01:07:37.728Z,0.00
2023-04-20T01:08:37.709Z,0.00
2023-04-20T01:09:37.746Z,0.00
2023-04-20T01:10:37.686Z,0.00
2023-04-20T01:11:37.689Z,0.00
2023-04-20T01:12:37.691Z,0.00
2023-04-20T01:13:37.655Z,0.00
2023-04-20T01:14:37.667Z,0.00
2023-04-20T01:15:37.710Z,0.00
2023-04-20T01:16:37.740Z,0.00
2023-04-20T01:17:37.672Z,0.00
2023-04-20T01:18:37.590Z,0.00
2023-04-20T01:19:37.614Z,0.00
2023-04-20T01:20:37.614Z,0.00
2023-04-20T01:21:37.557Z,0.00
2023-04-20T01:22:37.588Z,0.00
2023-04-20T01:23:37.543Z,0.00
2023-04-20T01:24:37.538Z,0.00
2023-04-20T01:25:37.572Z,0.00
2023-04-20T01:26:37.544Z,0.00
2023-04-20T01:27:37.498Z,0.00
2023-04-20T01:28:37.530Z,0.00
2023-04-20T01:29:37.492Z,0.00
2023-04-20T01:30:37.474Z,0.00
2023-04-20T01:31:37.511Z,0.00
2023-04-20T01:32:37.510Z,0.00
2023-04-20T01:33:37.467Z,0.00
2023-04-20T01:34:37.437Z,0.00
2023-04-20T01:35:37.414Z,0.00
2023-04-20T01:36:37.412Z,0.00
2023-04-20T01:37:37.402Z,0.00
2023-04-20T01:38:37.410Z,0.00
2023-04-20T01:39:37.429Z,0.00
2023-04-20T01:40:37.386Z,0.00
2023-04-20T01:41:37.359Z,0.00
2023-04-20T01:42:37.351Z,0.00
2023-04-20T01:43:37.330Z,0.00
2023-04-20T01:44:37.386Z,0.00
2023-04-20T01:45:37.313Z,0.00
2023-04-20T01:46:37.319Z,0.00
2023-04-20T01:47:37.320Z,0.00
2023-04-20T01:48:37.289Z,0.00
2023-04-20T01:49:37.284Z,0.00
2023-04-20T01:50:37.279Z,0.00
2023-04-20T01:51:37.273Z,0.00
2023-04-20T01:52:37.297Z,0.00
2023-04-20T01:53:37.250Z,0.00
2023-04-20T01:54:37.226Z,0.00
2023-04-20T01:55:37.203Z,0.00
2023-04-20T01:56:37.213Z,0.00
2023-04-20T01:57:37.198Z,0.00
2023-04-20T01:58:37.203Z,0.00
2023-04-20T01:59:37.424Z,0.00
2023-04-20T02:00:37.192Z,0.00
2023-04-20T02:01:37.152Z,0.00
2023-04-20T02:02:37.229Z,0.00
2023-04-20T02:03:37.250Z,0.00
2023-04-20T02:04:37.136Z,0.00
2023-04-20T02:05:37.101Z,0.00
2023-04-20T02:06:37.118Z,0.00
2023-04-20T02:07:37.109Z,0.00
2023-04-20T02:08:37.137Z,0.00
2023-04-20T02:09:37.066Z,0.00
2023-04-20T02:10:37.049Z,0.00
2023-04-20T02:11:37.051Z,0.00
2023-04-20T02:12:37.037Z,0.00
2023-04-20T02:13:37.027Z,0.00
2023-04-20T02:14:37.021Z,0.00
2023-04-20T02:15:36.995Z,0.00
2023-04-20T02:16:37.067Z,0.00
2023-04-20T02:17:37.033Z,0.00
2023-04-20T02:18:36.993Z,0.00
2023-04-20T02:19:36.940Z,0.00
2023-04-20T02:20:36.983Z,0.00
2023-04-20T02:21:36.921Z,0.00
2023-04-20T02:22:36.973Z,0.00
2023-04-20T02:23:36.911Z,0.00
2023-04-20T02:24:36.954Z,0.00
2023-04-20T02:25:36.912Z,0.00
2023-04-20T02:26:36.881Z,0.00
2023-04-20T02:27:36.862Z,0.00
2023-04-20T02:28:36.861Z,0.00
2023-04-20T02:29:36.921Z,0.00
2023-04-20T02:30:36.883Z,0.00
2023-04-20T02:31:36.899Z,0.00
2023-04-20T02:32:36.807Z,0.00
2023-04-20T02:33:36.795Z,0.00
2023-04-20T02:34:36.798Z,0.00
2023-04-20T02:35:36.831Z,0.00
2023-04-20T02:36:36.766Z,0.00
2023-04-20T02:37:36.797Z,0.00
2023-04-20T02:38:36.748Z,0.00
2023-04-20T02:39:36.758Z,0.00
2023-04-20T02:40:36.736Z,0.00
2023-04-20T02:41:36.756Z,0.00
2023-04-20T02:42:36.704Z,0.00
2023-04-20T02:43:36.702Z,0.00
2023-04-20T02:44:36.680Z,0.00
2023-04-20T02:45:36.666Z,0.00
2023-04-20T02:46:36.710Z,0.00
2023-04-20T02:47:36.740Z,0.00
2023-04-20T02:48:36.661Z,0.00
2023-04-20T02:49:36.642Z,0.00
2023-04-20T02:50:36.627Z,0.00
2023-04-20T02:51:36.619Z,0.00
2023-04-20T02:52:36.626Z,0.00
2023-04-20T02:53:36.601Z,0.00
2023-04-20T02:54:36.635Z,0.00
2023-04-20T02:55:36.580Z,0.00
2023-04-20T02:56:36.562Z,0.00
2023-04-20T02:57:36.587Z,0.00
2023-04-20T02:58:36.545Z,0.00
2023-04-20T02:59:36.541Z,0.00
2023-04-20T03:00:36.520Z,0.00
2023-04-20T03:01:36.514Z,0.00
2023-04-20T03:02:36.816Z,0.00
2023-04-20T03:03:36.661Z,0.00
2023-04-20T03:04:36.577Z,0.00
2023-04-20T03:05:36.481Z,0.00
2023-04-20T03:06:38.033Z,0.00
2023-04-20T03:07:36.452Z,0.00
2023-04-20T03:08:36.421Z,0.00
2023-04-20T03:09:36.432Z,0.00
2023-04-20T03:10:36.418Z,0.00
2023-04-20T03:11:36.438Z,0.00
2023-04-20T03:12:36.379Z,0.00
2023-04-20T03:13:36.471Z,0.00
2023-04-20T03:14:36.368Z,0.00
2023-04-20T03:15:36.377Z,0.00
2023-04-20T03:16:36.388Z,0.00
2023-04-20T03:17:36.403Z,0.00
2023-04-20T03:18:36.320Z,0.00
2023-04-20T03:19:36.338Z,0.00
2023-04-20T03:21:26.877Z,0.00
2023-04-20T03:22:27.868Z,0.00
2023-04-20T03:23:27.839Z,0.00
2023-04-20T03:24:27.845Z,0.00
2023-04-20T03:25:27.860Z,0.00
2023-04-20T03:26:27.851Z,0.00
2023-04-20T03:27:27.806Z,0.00
2023-04-20T03:28:27.845Z,0.00
2023-04-20T03:29:27.781Z,0.00
2023-04-20T03:30:27.793Z,0.00
2023-04-20T03:31:27.789Z,0.00
2023-04-20T03:32:27.771Z,0.00
2023-04-20T03:33:27.756Z,0.00
2023-04-20T03:34:27.742Z,0.00
2023-04-20T03:35:27.702Z,0.00
2023-04-20T03:36:27.740Z,0.00
2023-04-20T03:37:27.714Z,0.00
2023-04-20T03:38:27.697Z,0.00
2023-04-20T03:39:27.685Z,0.00
2023-04-20T03:40:27.684Z,0.00
2023-04-20T03:41:27.700Z,0.00
2023-04-20T03:42:27.678Z,0.00
2023-04-20T03:43:27.631Z,0.00
2023-04-20T03:44:27.645Z,0.00
2023-04-20T03:45:28.373Z,0.00
2023-04-20T03:46:27.676Z,0.00
2023-04-20T03:47:27.654Z,0.00
2023-04-20T03:48:27.583Z,0.00
2023-04-20T03:49:27.585Z,0.00
2023-04-20T03:50:27.739Z,0.00
2023-04-20T03:51:27.549Z,0.00
2023-04-20T03:52:27.585Z,0.00
2023-04-20T03:53:27.534Z,0.00
2023-04-20T03:54:27.530Z,0.00
2023-04-20T03:55:27.506Z,0.00
2023-04-20T03:56:27.611Z,0.00
2023-04-20T03:57:27.496Z,0.00
2023-04-20T03:58:27.474Z,1.00
2023-04-20T03:59:27.406Z,1.00
2023-04-20T04:00:27.568Z,0.00
2023-04-20T04:01:27.459Z,0.00
2023-04-20T04:02:27.505Z,1.00
2023-04-20T04:03:27.558Z,1.00
2023-04-20T04:04:27.563Z,0.00
2023-04-20T04:05:27.497Z,1.00
2023-04-20T04:06:27.394Z,1.00
2023-04-20T04:07:27.355Z,2.00
2023-04-20T04:08:27.324Z,3.00
2023-04-20T04:09:27.302Z,5.00
2023-04-20T04:10:27.311Z,6.00
2023-04-20T04:11:27.307Z,5.00
2023-04-20T04:12:27.302Z,5.00
2023-04-20T04:13:27.268Z,3.00
2023-04-20T04:14:27.261Z,5.00
2023-04-20T04:15:27.248Z,9.00
2023-04-20T04:16:27.270Z,12.00
2023-04-20T04:17:27.263Z,16.00
2023-04-20T04:18:27.272Z,22.00
2023-04-20T04:19:27.187Z,22.00
2023-04-20T04:20:27.200Z,22.00
2023-04-20T04:21:27.193Z,21.00
2023-04-20T04:22:28.562Z,23.00
2023-04-20T04:23:27.199Z,26.00
2023-04-20T04:24:27.169Z,28.00
2023-04-20T04:25:27.168Z,26.00
2023-04-20T04:26:27.154Z,24.00
2023-04-20T04:27:27.110Z,33.00
2023-04-20T04:28:27.114Z,41.00
2023-04-20T04:29:27.225Z,43.00
2023-04-20T04:30:27.109Z,51.00
2023-04-20T04:31:27.128Z,52.00
2023-04-20T04:32:27.105Z,56.00
2023-04-20T04:33:27.081Z,61.00
2023-04-20T04:34:27.076Z,55.00
2023-04-20T04:35:27.064Z,58.00
2023-04-20T04:36:27.158Z,81.00
2023-04-20T04:37:27.045Z,115.00
2023-04-20T04:38:27.018Z,138.00
2023-04-20T04:39:27.067Z,151.00
2023-04-20T04:40:27.018Z,175.00
2023-04-20T04:41:27.091Z,176.00
2023-04-20T04:42:26.984Z,195.00
2023-04-20T04:43:26.940Z,200.00
2023-04-20T04:44:26.995Z,229.00
2023-04-20T04:45:26.983Z,236.00
2023-04-20T04:46:26.966Z,263.00
2023-04-20T04:47:26.931Z,279.00
2023-04-20T04:48:27.043Z,262.00
2023-04-20T04:49:26.907Z,287.00
2023-04-20T04:50:26.917Z,264.00
2023-04-20T04:51:26.870Z,271.00
2023-04-20T04:52:26.869Z,250.00
2023-04-20T04:53:26.849Z,227.00
2023-04-20T04:54:26.861Z,220.00
2023-04-20T04:55:26.849Z,233.00
2023-04-20T04:56:26.825Z,260.00
2023-04-20T04:57:26.843Z,270.00
2023-04-20T04:58:26.797Z,275.00
2023-04-20T04:59:26.795Z,321.00
2023-04-20T05:00:26.825Z,360.00
2023-04-20T05:01:26.823Z,400.00
2023-04-20T05:02:26.938Z,320.00
2023-04-20T05:03:27.037Z,253.00
2023-04-20T05:04:26.816Z,205.00
2023-04-20T05:05:26.788Z,182.00
2023-04-20T05:06:26.753Z,181.00
2023-04-20T05:07:26.697Z,184.00
2023-04-20T05:08:26.721Z,186.00
2023-04-20T05:09:26.682Z,219.00
2023-04-20T05:10:26.687Z,220.00
2023-04-20T05:11:26.644Z,212.00
2023-04-20T05:12:26.710Z,202.00
2023-04-20T05:13:26.627Z,196.00
2023-04-20T05:14:26.653Z,199.00
2023-04-20T05:15:26.617Z,231.00
2023-04-20T05:16:26.769Z,233.00
2023-04-20T05:17:26.658Z,220.00
2023-04-20T05:18:26.601Z,287.00
2023-04-20T05:19:26.572Z,357.00
2023-04-20T05:20:26.557Z,388.00
2023-04-20T05:21:26.549Z,439.00
2023-04-20T05:22:26.566Z,474.00
2023-04-20T05:23:26.533Z,546.00
2023-04-20T05:24:26.528Z,630.00
2023-04-20T05:25:26.500Z,727.00
2023-04-20T05:26:26.510Z,789.00
2023-04-20T05:27:26.510Z,804.00
2023-04-20T05:28:26.515Z,784.00
2023-04-20T05:29:26.478Z,743.00
2023-04-20T05:30:26.470Z,702.00
2023-04-20T05:31:26.544Z,699.00
2023-04-20T05:32:26.522Z,719.00
2023-04-20T05:33:26.449Z,794.00
2023-04-20T05:34:26.450Z,839.00
2023-04-20T05:35:26.397Z,835.00
2023-04-20T05:36:26.418Z,804.00
2023-04-20T05:37:26.456Z,760.00
2023-04-20T05:38:26.379Z,722.00
2023-04-20T05:39:26.374Z,767.00
2023-04-20T05:40:26.359Z,836.00
2023-04-20T05:41:26.358Z,947.00
2023-04-20T05:42:26.346Z,1049.00
2023-04-20T05:43:26.342Z,1122.00
2023-04-20T05:44:26.317Z,1135.00
2023-04-20T05:45:26.301Z,1229.00
2023-04-20T05:46:26.341Z,1300.00
2023-04-20T05:47:26.307Z,1211.00
2023-04-20T05:48:27.840Z,1232.00
2023-04-20T05:49:26.289Z,1355.00
2023-04-20T05:50:26.249Z,1317.00
2023-04-20T05:51:26.291Z,1207.00
2023-04-20T05:52:26.233Z,1317.00
2023-04-20T05:53:26.238Z,1323.00
2023-04-20T05:54:26.819Z,1310.00
2023-04-20T05:55:26.204Z,1351.00
2023-04-20T05:56:26.233Z,1278.00
2023-04-20T05:57:26.219Z,1173.00
2023-04-20T05:58:26.183Z,1171.00
2023-04-20T05:59:26.204Z,1117.00
2023-04-20T06:00:26.433Z,1082.00
2023-04-20T06:01:26.138Z,1007.00
2023-04-20T06:02:26.187Z,994.00
2023-04-20T06:03:26.232Z,1021.00
2023-04-20T06:04:26.529Z,1009.00
2023-04-20T06:05:26.166Z,1017.00
2023-04-20T06:06:26.099Z,778.00
2023-04-20T06:07:26.091Z,747.00
2023-04-20T06:08:26.050Z,685.00
2023-04-20T06:09:26.059Z,634.00
2023-04-20T06:10:26.053Z,648.00
2023-04-20T06:11:26.029Z,690.00
2023-04-20T06:12:26.852Z,575.00
2023-04-20T06:13:26.024Z,671.00
2023-04-20T06:14:25.991Z,603.00
2023-04-20T06:15:25.988Z,563.00
2023-04-20T06:16:26.049Z,591.00
2023-04-20T06:17:26.045Z,637.00
2023-04-20T06:18:25.941Z,660.00
2023-04-20T06:19:25.940Z,764.00
2023-04-20T06:20:25.939Z,745.00
2023-04-20T06:21:25.950Z,738.00
2023-04-20T06:22:25.966Z,801.00
2023-04-20T06:23:25.935Z,961.00
2023-04-20T06:24:25.885Z,917.00
2023-04-20T06:25:25.906Z,904.00
2023-04-20T06:26:25.880Z,961.00
2023-04-20T06:27:25.867Z,942.00
2023-04-20T06:28:25.832Z,793.00
2023-04-20T06:29:25.845Z,748.00
2023-04-20T06:30:25.809Z,906.00
2023-04-20T06:31:25.888Z,795.00
2023-04-20T06:32:25.854Z,896.00
2023-04-20T06:33:25.797Z,1008.00
2023-04-20T06:34:25.775Z,1242.00
2023-04-20T06:35:25.778Z,1089.00
2023-04-20T06:36:25.761Z,1193.00
2023-04-20T06:37:25.753Z,1156.00
2023-04-20T06:38:25.754Z,868.00
2023-04-20T06:39:25.748Z,909.00
2023-04-20T06:40:25.718Z,910.00
2023-04-20T06:41:25.729Z,818.00
2023-04-20T06:42:25.709Z,893.00
2023-04-20T06:43:25.691Z,1142.00
2023-04-20T06:44:25.739Z,969.00
2023-04-20T06:45:25.682Z,776.00
2023-04-20T06:46:25.699Z,927.00
2023-04-20T06:47:25.682Z,1154.00
2023-04-20T06:48:32.334Z,1132.00
2023-04-20T06:49:25.661Z,1141.00
2023-04-20T06:50:25.624Z,1172.00
2023-04-20T06:51:25.591Z,1052.00
2023-04-20T06:52:25.580Z,842.00
2023-04-20T06:53:25.596Z,973.00
2023-04-20T06:54:25.577Z,872.00
2023-04-20T06:55:25.575Z,870.00
2023-04-20T06:56:25.522Z,990.00
2023-04-20T06:57:25.558Z,1015.00
2023-04-20T06:58:25.560Z,1155.00
2023-04-20T06:59:25.511Z,744.00
2023-04-20T07:00:25.553Z,626.00
2023-04-20T07:01:25.573Z,1130.00
2023-04-20T07:02:25.530Z,1361.00
2023-04-20T07:03:25.672Z,1490.00
2023-04-20T07:04:25.564Z,1215.00
2023-04-20T07:05:25.571Z,1109.00
2023-04-20T07:06:25.470Z,948.00
2023-04-20T07:07:25.454Z,1237.00
2023-04-20T07:08:25.412Z,1139.00
2023-04-20T07:09:25.405Z,1272.00
2023-04-20T07:10:25.399Z,1266.00
2023-04-20T07:11:25.386Z,1679.00
2023-04-20T07:12:25.420Z,1262.00
2023-04-20T07:13:25.393Z,1180.00
2023-04-20T07:14:25.368Z,1418.00
2023-04-20T07:15:25.420Z,1601.00
2023-04-20T07:16:25.412Z,1280.00
2023-04-20T07:17:25.371Z,1288.00
2023-04-20T07:18:25.342Z,1909.00
2023-04-20T07:19:25.300Z,1826.00
2023-04-20T07:20:25.388Z,2316.00
2023-04-20T07:21:25.287Z,2462.00
2023-04-20T07:22:25.283Z,2762.00
2023-04-20T07:23:25.292Z,3045.00
2023-04-20T07:24:25.236Z,2703.00
2023-04-20T07:25:25.229Z,2636.00
2023-04-20T07:26:25.217Z,1962.00
2023-04-20T07:27:25.223Z,1541.00
2023-04-20T07:28:25.228Z,1616.00
2023-04-20T07:29:25.196Z,1558.00
2023-04-20T07:30:25.153Z,1867.00
2023-04-20T07:31:25.208Z,1378.00
2023-04-20T07:32:25.194Z,1522.00
2023-04-20T07:33:25.169Z,1592.00
2023-04-20T07:34:25.129Z,1590.00
2023-04-20T07:35:25.132Z,1530.00
2023-04-20T07:36:25.110Z,1475.00
2023-04-20T07:37:27.192Z,1386.00
2023-04-20T07:38:25.077Z,1465.00
2023-04-20T07:39:25.113Z,1320.00
2023-04-20T07:40:25.146Z,1561.00
2023-04-20T07:41:25.068Z,1520.00
2023-04-20T07:42:25.038Z,1585.00
2023-04-20T07:43:25.068Z,1434.00
2023-04-20T07:44:25.030Z,1873.00
2023-04-20T07:45:25.015Z,2261.00
2023-04-20T07:46:25.085Z,2821.00
2023-04-20T07:47:25.072Z,3338.00
2023-04-20T07:48:24.983Z,2796.00
2023-04-20T07:49:24.986Z,2158.00
2023-04-20T07:50:25.002Z,1919.00
2023-04-20T07:51:24.967Z,1697.00
2023-04-20T07:52:24.934Z,1621.00
2023-04-20T07:53:24.995Z,1291.00
2023-04-20T07:54:24.950Z,900.00
2023-04-20T07:55:25.183Z,1659.00
2023-04-20T07:56:24.906Z,1688.00
2023-04-20T07:57:24.911Z,1520.00
2023-04-20T07:58:24.899Z,2499.00
2023-04-20T07:59:24.887Z,2456.00
2023-04-20T08:00:24.906Z,2327.00
2023-04-20T08:01:24.846Z,2820.00
2023-04-20T08:02:25.058Z,3467.00
2023-04-20T08:03:24.968Z,3019.00
2023-04-20T08:04:25.117Z,2358.00
2023-04-20T08:05:24.975Z,2379.00
2023-04-20T08:06:25.220Z,1820.00
2023-04-20T08:07:24.796Z,2399.00
2023-04-20T08:08:24.913Z,2700.00
2023-04-20T08:09:24.790Z,2417.00
2023-04-20T08:10:24.774Z,1578.00
2023-04-20T08:11:24.785Z,2025.00
2023-04-20T08:12:24.801Z,2502.00
2023-04-20T08:13:24.717Z,2606.00
2023-04-20T08:14:24.737Z,2310.00
2023-04-20T08:15:24.728Z,1950.00
2023-04-20T08:16:24.729Z,1691.00
2023-04-20T08:17:24.724Z,1258.00
2023-04-20T08:18:24.725Z,1662.00
2023-04-20T08:19:24.747Z,1598.00
2023-04-20T08:20:24.914Z,1554.00
2023-04-20T08:21:25.549Z,1441.00
2023-04-20T08:22:24.661Z,1401.00
2023-04-20T08:23:24.688Z,1787.00
2023-04-20T08:24:24.628Z,1340.00
2023-04-20T08:25:25.385Z,1174.00
2023-04-20T08:26:24.640Z,1459.00
2023-04-20T08:27:24.584Z,2511.00
2023-04-20T08:29:24.597Z,3187.00
2023-04-20T08:30:24.555Z,3589.00
2023-04-20T08:31:24.632Z,3613.00
2023-04-20T08:32:24.668Z,3229.00
2023-04-20T08:33:24.520Z,2763.00
2023-04-20T08:34:24.492Z,3049.00
2023-04-20T08:35:24.484Z,3226.00
2023-04-20T08:36:24.493Z,2931.00
2023-04-20T08:37:24.495Z,2546.00
2023-04-20T08:38:33.335Z,1938.00
2023-04-20T08:39:24.560Z,1291.00
2023-04-20T08:40:24.514Z,999.00
2023-04-20T08:41:24.434Z,1785.00
2023-04-20T08:42:24.429Z,2824.00
2023-04-20T08:43:24.432Z,3030.00
2023-04-20T08:44:24.405Z,4096.00
2023-04-20T08:45:24.577Z,4377.00
2023-04-20T08:46:24.481Z,4613.00
2023-04-20T08:47:24.456Z,4814.00
2023-04-20T08:48:27.205Z,4766.00
2023-04-20T08:49:24.384Z,4418.00
2023-04-20T08:50:24.332Z,4127.00
2023-04-20T08:51:24.499Z,3940.00
2023-04-20T08:52:24.314Z,4048.00
2023-04-20T08:53:24.355Z,4280.00
2023-04-20T08:54:24.888Z,3588.00
2023-04-20T08:55:24.332Z,3746.00
2023-04-20T08:56:24.356Z,3271.00
2023-04-20T08:57:24.328Z,2438.00
2023-04-20T08:58:24.241Z,2387.00
2023-04-20T08:59:24.266Z,2620.00
2023-04-20T09:00:24.224Z,2403.00
2023-04-20T09:01:34.365Z,2572.00
2023-04-20T09:02:24.327Z,3929.00
2023-04-20T09:03:24.456Z,3728.00
2023-04-20T09:04:24.639Z,3659.00
2023-04-20T09:05:24.212Z,2994.00
2023-04-20T09:06:24.137Z,3498.00
2023-04-20T09:07:24.151Z,3255.00
2023-04-20T09:08:24.126Z,3551.00
2023-04-20T09:09:24.147Z,3578.00
2023-04-20T09:10:24.153Z,3181.00
2023-04-20T09:11:24.114Z,2256.00
2023-04-20T09:12:24.078Z,1436.00
2023-04-20T09:13:24.131Z,2117.00
2023-04-20T09:14:24.043Z,4387.00
2023-04-20T09:15:24.051Z,5226.00
2023-04-20T09:16:24.111Z,2950.00
2023-04-20T09:17:24.056Z,9769.00
2023-04-20T09:18:24.069Z,7915.00
2023-04-20T09:19:24.010Z,10862.00
2023-04-20T09:20:24.025Z,6486.00
2023-04-20T09:21:23.987Z,6691.00
2023-04-20T09:22:23.998Z,6478.00
2023-04-20T09:23:29.974Z,9094.00
2023-04-20T09:24:23.943Z,7360.00
2023-04-20T09:25:23.961Z,5250.00
2023-04-20T09:26:23.928Z,3668.00
2023-04-20T09:27:23.934Z,7098.00
2023-04-20T09:28:24.054Z,11500.00
2023-04-20T09:29:23.916Z,7371.00
2023-04-20T09:30:23.893Z,5854.00
2023-04-20T09:31:23.944Z,5681.00
2023-04-20T09:32:23.977Z,5488.00
2023-04-20T09:33:23.857Z,4179.00
2023-04-20T09:34:23.854Z,4858.00
2023-04-20T09:35:23.850Z,4999.00
2023-04-20T09:36:23.821Z,7831.00
2023-04-20T09:37:23.847Z,6720.00
2023-04-20T09:38:23.800Z,4447.00
2023-04-20T09:39:23.805Z,4918.00
2023-04-20T09:40:23.774Z,6682.00
2023-04-20T09:41:23.779Z,6605.00
2023-04-20T09:42:23.747Z,6333.00
2023-04-20T09:43:23.772Z,6666.00
2023-04-20T09:44:23.747Z,5941.00
2023-04-20T09:45:23.793Z,5241.00
2023-04-20T09:46:23.859Z,3121.00
2023-04-20T09:47:23.729Z,3048.00
2023-04-20T09:48:23.692Z,3396.00
2023-04-20T09:49:23.702Z,3583.00
2023-04-20T09:50:31.767Z,2882.00
2023-04-20T09:51:23.689Z,3907.00
2023-04-20T09:52:23.638Z,5042.00
2023-04-20T09:53:23.676Z,3809.00
2023-04-20T09:54:23.628Z,2928.00
2023-04-20T09:55:23.614Z,4050.00
2023-04-20T09:56:23.620Z,4382.00
2023-04-20T09:57:23.602Z,4474.00
2023-04-20T09:58:23.584Z,3707.00
2023-04-20T09:59:23.567Z,2494.00
2023-04-20T10:00:23.559Z,2257.00
2023-04-20T10:01:23.628Z,2577.00
2023-04-20T10:02:23.700Z,2293.00
2023-04-20T10:03:23.681Z,1743.00
2023-04-20T10:04:24.256Z,1687.00
2023-04-20T10:05:23.496Z,2191.00
2023-04-20T10:06:23.506Z,3038.00
2023-04-20T10:07:23.521Z,2595.00
2023-04-20T10:08:23.504Z,2313.00
2023-04-20T10:09:23.463Z,2175.00
2023-04-20T10:10:23.477Z,1807.00
2023-04-20T10:11:23.440Z,1992.00
2023-04-20T10:12:23.456Z,2510.00
2023-04-20T10:13:23.425Z,3343.00
2023-04-20T10:14:23.426Z,3151.00
2023-04-20T10:15:23.424Z,3282.00
2023-04-20T10:16:23.467Z,3318.00
2023-04-20T10:17:23.697Z,3176.00
2023-04-20T10:18:24.011Z,2644.00
2023-04-20T10:19:23.357Z,4446.00
2023-04-20T10:20:23.394Z,7119.00
2023-04-20T10:21:23.357Z,7171.00
2023-04-20T10:22:23.348Z,6938.00
2023-04-20T10:23:23.342Z,6151.00
2023-04-20T10:24:23.539Z,4811.00
2023-04-20T10:25:23.293Z,3986.00
2023-04-20T10:26:23.434Z,3104.00
2023-04-20T10:27:23.261Z,2522.00
2023-04-20T10:28:23.283Z,1947.00
2023-04-20T10:29:23.239Z,2340.00
2023-04-20T10:30:23.236Z,3437.00
2023-04-20T10:31:23.328Z,4576.00
2023-04-20T10:32:23.263Z,6400.00
2023-04-20T10:33:23.233Z,6615.00
2023-04-20T10:34:23.294Z,6142.00
2023-04-20T10:35:23.242Z,5108.00
2023-04-20T10:36:23.194Z,4060.00
2023-04-20T10:37:23.189Z,3043.00
2023-04-20T10:38:23.187Z,2838.00
2023-04-20T10:39:23.257Z,2700.00
2023-04-20T10:40:23.141Z,2438.00
2023-04-20T10:41:23.114Z,2151.00
2023-04-20T10:42:23.120Z,2000.00
2023-04-20T10:43:23.147Z,1626.00
2023-04-20T10:44:23.152Z,1352.00
2023-04-20T10:45:23.062Z,1067.00
2023-04-20T10:46:23.209Z,848.00
2023-04-20T10:47:23.153Z,1324.00
2023-04-20T10:48:23.112Z,2284.00
2023-04-20T10:49:23.057Z,3311.00
2023-04-20T10:50:23.035Z,2616.00
2023-04-20T10:51:23.071Z,2801.00
2023-04-20T10:52:23.048Z,3529.00
2023-04-20T10:53:23.015Z,4149.00
2023-04-20T10:54:23.022Z,4287.00
2023-04-20T10:55:22.985Z,4282.00
2023-04-20T10:56:23.007Z,4193.00
2023-04-20T10:57:22.968Z,3908.00
2023-04-20T10:58:22.969Z,3711.00
2023-04-20T10:59:22.959Z,3524.00
2023-04-20T11:00:23.017Z,3256.00
2023-04-20T11:01:22.940Z,3006.00
2023-04-20T11:02:23.206Z,2885.00
2023-04-20T11:03:22.960Z,2901.00
2023-04-20T11:04:22.934Z,2946.00
2023-04-20T11:05:23.104Z,3064.00
2023-04-20T11:06:22.849Z,3095.00
2023-04-20T11:07:22.868Z,3165.00
2023-04-20T11:08:22.869Z,3255.00
2023-04-20T11:09:22.841Z,3574.00
2023-04-20T11:10:22.880Z,3551.00
2023-04-20T11:11:22.807Z,3416.00
2023-04-20T11:12:22.856Z,4798.00
2023-04-20T11:13:22.792Z,8987.00
2023-04-20T11:14:22.781Z,7720.00
2023-04-20T11:15:22.792Z,6520.00
2023-04-20T11:16:26.235Z,5685.00
2023-04-20T11:17:22.802Z,7761.00
2023-04-20T11:18:22.764Z,7216.00
2023-04-20T11:19:22.735Z,5704.00
2023-04-20T11:20:22.729Z,11365.00
2023-04-20T11:21:22.677Z,17690.00
2023-04-20T11:22:22.701Z,9843.00
2023-04-20T11:23:22.738Z,13315.00
2023-04-20T11:24:22.673Z,14481.00
2023-04-20T11:25:22.877Z,8411.00
2023-04-20T11:26:22.688Z,4516.00
2023-04-20T11:27:22.618Z,13579.00
2023-04-20T11:28:22.645Z,9531.00
2023-04-20T11:29:22.617Z,7106.00
2023-04-20T11:30:22.593Z,5956.00
2023-04-20T11:31:22.707Z,5174.00
2023-04-20T11:32:23.198Z,4515.00
2023-04-20T11:33:22.776Z,3922.00
2023-04-20T11:34:22.582Z,3400.00
2023-04-20T11:35:22.546Z,3485.00
2023-04-20T11:36:22.557Z,3111.00
2023-04-20T11:37:22.513Z,2503.00
2023-04-20T11:38:22.498Z,16068.00
2023-04-20T11:39:22.520Z,8283.00
2023-04-20T11:40:22.527Z,10876.00
2023-04-20T11:41:22.484Z,12221.00
2023-04-20T11:42:22.486Z,17790.00
2023-04-20T11:43:22.506Z,25958.00
2023-04-20T11:44:22.487Z,36470.00
2023-04-20T11:45:22.424Z,35327.00
2023-04-20T11:46:22.625Z,30711.00
2023-04-20T11:47:24.026Z,39201.00
2023-04-20T11:48:22.454Z,64961.00
2023-04-20T11:49:22.374Z,22672.00
2023-04-20T11:50:22.380Z,4377.00
2023-04-20T11:51:22.372Z,27311.00
2023-04-20T11:52:22.386Z,30690.00
2023-04-20T11:53:22.327Z,11744.00
2023-04-20T11:54:22.439Z,8386.00
2023-04-20T11:55:22.453Z,6310.00
2023-04-20T11:56:22.351Z,8221.00
2023-04-20T11:57:22.298Z,7701.00
2023-04-20T11:58:22.309Z,9947.00
2023-04-20T11:59:22.297Z,8058.00
2023-04-20T12:00:22.270Z,3291.00
2023-04-20T12:01:22.257Z,13814.00
2023-04-20T12:02:22.342Z,16235.00
2023-04-20T12:03:22.504Z,9190.00
2023-04-20T12:04:22.489Z,5317.00
2023-04-20T12:05:22.344Z,74094.00
2023-04-20T12:06:22.202Z,58970.00
2023-04-20T12:07:22.198Z,5198.00
2023-04-20T12:08:22.242Z,58019.00
2023-04-20T12:09:22.202Z,8927.00
2023-04-20T12:10:23.148Z,10914.00
2023-04-20T12:11:22.157Z,7939.00
2023-04-20T12:12:22.157Z,5289.00
2023-04-20T12:13:22.128Z,36222.00
2023-04-20T12:14:22.112Z,30343.00
2023-04-20T12:15:22.154Z,75213.00
2023-04-20T12:16:22.134Z,75202.00
2023-04-20T12:17:22.110Z,74172.00
2023-04-20T12:18:22.080Z,57922.00
2023-04-20T12:19:22.068Z,10818.00
2023-04-20T12:20:22.099Z,7891.00
2023-04-20T12:21:22.052Z,6675.00
2023-04-20T12:22:22.043Z,5192.00
2023-04-20T12:23:22.017Z,4441.00
2023-04-20T12:24:22.044Z,3249.00
2023-04-20T12:25:22.017Z,9254.00
2023-04-20T12:26:27.037Z,9471.00
2023-04-20T12:27:21.981Z,6614.00
2023-04-20T12:28:21.994Z,76308.00
2023-04-20T12:29:21.948Z,74467.00
2023-04-20T12:30:21.944Z,73341.00
2023-04-20T12:31:23.030Z,71602.00
2023-04-20T12:32:22.002Z,72709.00
2023-04-20T12:33:21.916Z,72939.00
2023-04-20T12:34:21.912Z,73228.00